sensor_id;sensor_type;location;lat;lon;timestamp;pressure;altitude;pressure_sealevel;temperature;humidity
24752;BME280;27246;52.376;4.628;2023-04-07T00:02:46;101359.63;;;8.53;100.00
24752;BME280;27246;52.376;4.628;2023-04-07T00:07:49;101353.88;;;8.65;100.00
24752;BME280;27246;52.376;4.628;2023-04-07T00:12:57;101361.09;;;8.66;100.00
24752;BME280;27246;52.376;4.628;2023-04-07T00:17:59;101364.47;;;8.59;100.00
24752;BME280;27246;52.376;4.628;2023-04-07T00:23:01;101372.78;;;8.68;100.00
24752;BME280;27246;52.376;4.628;2023-04-07T00:28:03;101371.59;;;8.70;100.00
24752;BME280;27246;52.376;4.628;2023-04-07T00:33:04;101377.38;;;8.67;100.00
24752;BME280;27246;52.376;4.628;2023-04-07T00:38:10;101382.03;;;8.67;100.00
24752;BME280;27246;52.376;4.628;2023-04-07T00:43:12;101369.09;;;8.59;100.00
24752;BME280;27246;52.376;4.628;2023-04-07T00:48:13;101378.38;;;8.58;100.00
24752;BME280;27246;52.376;4.628;2023-04-07T00:53:15;101375.13;;;8.63;100.00
24752;BME280;27246;52.376;4.628;2023-04-07T00:58:17;101369.28;;;8.57;100.00
24752;BME280;27246;52.376;4.628;2023-04-07T01:03:25;101363.13;;;8.64;100.00
24752;BME280;27246;52.376;4.628;2023-04-07T01:08:46;101365.56;;;8.67;100.00
24752;BME280;27246;52.376;4.628;2023-04-07T01:13:49;101366.19;;;8.60;100.00
24752;BME280;27246;52.376;4.628;2023-04-07T01:19:17;101368.44;;;8.65;100.00
24752;BME280;27246;52.376;4.628;2023-04-07T01:24:56;101374.28;;;8.62;100.00
24752;BME280;27246;52.376;4.628;2023-04-07T01:30:06;101371.47;;;8.54;100.00
24752;BME280;27246;52.376;4.628;2023-04-07T01:35:12;101379.56;;;8.55;100.00
24752;BME280;27246;52.376;4.628;2023-04-07T01:40:15;101376.16;;;8.61;100.00
24752;BME280;27246;52.376;4.628;2023-04-07T01:45:17;101383.72;;;8.59;100.00
24752;BME280;27246;52.376;4.628;2023-04-07T01:50:21;101377.88;;;8.63;100.00
24752;BME280;27246;52.376;4.628;2023-04-07T01:55:23;101367.94;;;8.61;100.00
24752;BME280;27246;52.376;4.628;2023-04-07T02:00:34;101372.72;;;8.59;100.00
24752;BME280;27246;52.376;4.628;2023-04-07T02:05:41;101380.63;;;8.63;100.00
24752;BME280;27246;52.376;4.628;2023-04-07T02:10:46;101377.66;;;8.56;100.00
24752;BME280;27246;52.376;4.628;2023-04-07T02:15:49;101372.53;;;8.61;100.00
24752;BME280;27246;52.376;4.628;2023-04-07T02:20:53;101384.63;;;8.68;100.00
24752;BME280;27246;52.376;4.628;2023-04-07T02:25:56;101390.81;;;8.70;100.00
24752;BME280;27246;52.376;4.628;2023-04-07T02:30:58;101397.31;;;8.69;100.00
24752;BME280;27246;52.376;4.628;2023-04-07T02:36:00;101394.97;;;8.74;100.00
24752;BME280;27246;52.376;4.628;2023-04-07T02:41:02;101396.53;;;8.77;100.00
24752;BME280;27246;52.376;4.628;2023-04-07T02:46:03;101393.47;;;8.80;100.00
24752;BME280;27246;52.376;4.628;2023-04-07T02:51:05;101393.22;;;8.73;100.00
24752;BME280;27246;52.376;4.628;2023-04-07T02:56:07;101391.69;;;8.71;100.00
24752;BME280;27246;52.376;4.628;2023-04-07T03:01:08;101396.47;;;8.69;100.00
24752;BME280;27246;52.376;4.628;2023-04-07T03:06:10;101396.81;;;8.66;100.00
24752;BME280;27246;52.376;4.628;2023-04-07T03:11:22;101399.28;;;8.77;100.00
24752;BME280;27246;52.376;4.628;2023-04-07T03:16:24;101404.06;;;8.75;99.00
24752;BME280;27246;52.376;4.628;2023-04-07T03:21:35;101404.63;;;8.78;98.48
24752;BME280;27246;52.376;4.628;2023-04-07T03:26:38;101400.22;;;8.86;96.52
24752;BME280;27246;52.376;4.628;2023-04-07T03:31:47;101405.41;;;8.71;96.58
24752;BME280;27246;52.376;4.628;2023-04-07T03:36:52;101404.56;;;8.70;97.02
24752;BME280;27246;52.376;4.628;2023-04-07T03:41:54;101398.50;;;8.67;96.58
24752;BME280;27246;52.376;4.628;2023-04-07T03:46:59;101401.66;;;8.72;97.19
24752;BME280;27246;52.376;4.628;2023-04-07T03:52:04;101398.84;;;8.64;97.88
24752;BME280;27246;52.376;4.628;2023-04-07T03:57:06;101401.97;;;8.69;98.38
24752;BME280;27246;52.376;4.628;2023-04-07T04:02:14;101403.00;;;8.68;97.61
24752;BME280;27246;52.376;4.628;2023-04-07T04:07:17;101411.25;;;8.68;97.07
24752;BME280;27246;52.376;4.628;2023-04-07T04:12:23;101425.34;;;8.73;97.62
24752;BME280;27246;52.376;4.628;2023-04-07T04:17:37;101415.84;;;8.67;97.16
24752;BME280;27246;52.376;4.628;2023-04-07T04:22:39;101420.31;;;8.68;96.41
24752;BME280;27246;52.376;4.628;2023-04-07T04:27:41;101424.97;;;8.68;96.70
24752;BME280;27246;52.376;4.628;2023-04-07T04:32:50;101427.72;;;8.68;95.77
24752;BME280;27246;52.376;4.628;2023-04-07T04:37:58;101423.94;;;8.69;95.57
24752;BME280;27246;52.376;4.628;2023-04-07T04:43:00;101422.22;;;8.68;94.88
24752;BME280;27246;52.376;4.628;2023-04-07T04:48:04;101426.13;;;8.65;95.63
24752;BME280;27246;52.376;4.628;2023-04-07T04:53:06;101439.84;;;8.65;95.65
24752;BME280;27246;52.376;4.628;2023-04-07T04:58:09;101436.41;;;8.63;95.58
24752;BME280;27246;52.376;4.628;2023-04-07T05:03:19;101444.63;;;8.63;95.95
24752;BME280;27246;52.376;4.628;2023-04-07T05:08:24;101455.63;;;8.63;95.96
24752;BME280;27246;52.376;4.628;2023-04-07T05:13:26;101453.78;;;8.64;96.24
24752;BME280;27246;52.376;4.628;2023-04-07T05:18:34;101457.94;;;8.68;96.93
24752;BME280;27246;52.376;4.628;2023-04-07T05:23:37;101466.16;;;8.68;97.20
24752;BME280;27246;52.376;4.628;2023-04-07T05:28:40;101463.97;;;8.53;97.71
24752;BME280;27246;52.376;4.628;2023-04-07T05:33:48;101462.22;;;8.52;98.80
24752;BME280;27246;52.376;4.628;2023-04-07T05:38:51;101463.72;;;8.47;98.87
24752;BME280;27246;52.376;4.628;2023-04-07T05:43:53;101459.69;;;8.41;99.96
24752;BME280;27246;52.376;4.628;2023-04-07T05:48:55;101468.00;;;8.49;100.00
24752;BME280;27246;52.376;4.628;2023-04-07T05:54:01;101471.09;;;8.46;100.00
24752;BME280;27246;52.376;4.628;2023-04-07T05:59:05;101468.97;;;8.40;100.00
24752;BME280;27246;52.376;4.628;2023-04-07T06:04:07;101487.34;;;8.57;98.81
24752;BME280;27246;52.376;4.628;2023-04-07T06:09:09;101490.81;;;8.59;97.23
24752;BME280;27246;52.376;4.628;2023-04-07T06:14:11;101497.16;;;8.78;95.79
24752;BME280;27246;52.376;4.628;2023-04-07T06:19:12;101500.91;;;9.13;93.20
24752;BME280;27246;52.376;4.628;2023-04-07T06:24:14;101515.13;;;8.90;92.08
24752;BME280;27246;52.376;4.628;2023-04-07T06:29:16;101517.09;;;8.98;91.46
24752;BME280;27246;52.376;4.628;2023-04-07T06:34:18;101529.88;;;8.89;90.81
24752;BME280;27246;52.376;4.628;2023-04-07T06:39:20;101528.16;;;8.88;90.57
24752;BME280;27246;52.376;4.628;2023-04-07T06:44:22;101535.00;;;9.02;89.52
24752;BME280;27246;52.376;4.628;2023-04-07T06:49:24;101539.94;;;9.34;87.29
24752;BME280;27246;52.376;4.628;2023-04-07T06:54:26;101539.06;;;8.98;87.59
24752;BME280;27246;52.376;4.628;2023-04-07T06:59:27;101549.28;;;8.88;87.53
24752;BME280;27246;52.376;4.628;2023-04-07T07:04:29;101548.72;;;8.84;88.10
24752;BME280;27246;52.376;4.628;2023-04-07T07:09:31;101547.69;;;8.85;89.51
24752;BME280;27246;52.376;4.628;2023-04-07T07:14:34;101549.59;;;8.85;88.78
24752;BME280;27246;52.376;4.628;2023-04-07T07:19:36;101550.59;;;8.84;89.77
24752;BME280;27246;52.376;4.628;2023-04-07T07:24:37;101541.97;;;8.96;89.05
24752;BME280;27246;52.376;4.628;2023-04-07T07:29:39;101552.75;;;8.90;90.26
24752;BME280;27246;52.376;4.628;2023-04-07T07:34:41;101562.78;;;8.99;90.02
24752;BME280;27246;52.376;4.628;2023-04-07T07:39:43;101563.56;;;8.91;90.04
24752;BME280;27246;52.376;4.628;2023-04-07T07:44:45;101574.00;;;8.88;90.90
24752;BME280;27246;52.376;4.628;2023-04-07T07:49:47;101575.88;;;8.87;91.34
24752;BME280;27246;52.376;4.628;2023-04-07T07:54:49;101577.13;;;8.93;90.89
24752;BME280;27246;52.376;4.628;2023-04-07T07:59:51;101582.78;;;8.91;90.60
24752;BME280;27246;52.376;4.628;2023-04-07T08:04:53;101589.41;;;8.98;90.86
24752;BME280;27246;52.376;4.628;2023-04-07T08:09:55;101598.19;;;9.02;90.82
24752;BME280;27246;52.376;4.628;2023-04-07T08:14:57;101596.53;;;9.09;90.76
24752;BME280;27246;52.376;4.628;2023-04-07T08:19:59;101604.41;;;9.04;89.91
24752;BME280;27246;52.376;4.628;2023-04-07T08:25:01;101609.44;;;9.09;89.56
24752;BME280;27246;52.376;4.628;2023-04-07T08:30:04;101613.66;;;9.03;89.91
24752;BME280;27246;52.376;4.628;2023-04-07T08:35:10;101617.44;;;9.02;89.37
24752;BME280;27246;52.376;4.628;2023-04-07T08:40:12;101623.78;;;9.02;89.05
24752;BME280;27246;52.376;4.628;2023-04-07T08:45:15;101622.31;;;9.08;89.66
24752;BME280;27246;52.376;4.628;2023-04-07T08:50:18;101634.72;;;9.12;90.04
24752;BME280;27246;52.376;4.628;2023-04-07T08:55:20;101625.75;;;9.10;89.52
24752;BME280;27246;52.376;4.628;2023-04-07T09:00:22;101639.63;;;9.36;89.27
24752;BME280;27246;52.376;4.628;2023-04-07T09:05:24;101643.31;;;9.45;89.57
24752;BME280;27246;52.376;4.628;2023-04-07T09:10:26;101647.78;;;9.46;88.64
24752;BME280;27246;52.376;4.628;2023-04-07T09:15:29;101650.69;;;9.45;89.17
24752;BME280;27246;52.376;4.628;2023-04-07T09:25:54;101650.56;;;9.72;87.29
24752;BME280;27246;52.376;4.628;2023-04-07T09:30:56;101649.44;;;9.57;87.57
24752;BME280;27246;52.376;4.628;2023-04-07T09:35:58;101661.69;;;9.63;88.30
24752;BME280;27246;52.376;4.628;2023-04-07T09:41:10;101652.97;;;9.67;89.24
24752;BME280;27246;52.376;4.628;2023-04-07T09:46:15;101663.94;;;9.85;88.20
24752;BME280;27246;52.376;4.628;2023-04-07T09:51:17;101661.84;;;9.61;88.60
24752;BME280;27246;52.376;4.628;2023-04-07T09:56:20;101663.47;;;9.72;88.39
24752;BME280;27246;52.376;4.628;2023-04-07T10:01:25;101673.19;;;10.02;86.38
24752;BME280;27246;52.376;4.628;2023-04-07T10:06:26;101681.88;;;9.89;84.87
24752;BME280;27246;52.376;4.628;2023-04-07T10:11:28;101676.75;;;9.76;85.84
24752;BME280;27246;52.376;4.628;2023-04-07T10:16:30;101677.56;;;9.87;86.83
24752;BME280;27246;52.376;4.628;2023-04-07T10:21:38;101683.19;;;10.03;86.62
24752;BME280;27246;52.376;4.628;2023-04-07T10:26:41;101684.47;;;9.91;85.51
24752;BME280;27246;52.376;4.628;2023-04-07T10:31:43;101689.69;;;10.02;85.93
24752;BME280;27246;52.376;4.628;2023-04-07T10:37:11;101694.13;;;9.95;86.69
24752;BME280;27246;52.376;4.628;2023-04-07T10:53:06;101699.91;;;10.10;86.07
24752;BME280;27246;52.376;4.628;2023-04-07T10:58:21;101699.72;;;10.29;85.90
24752;BME280;27246;52.376;4.628;2023-04-07T11:03:24;101706.38;;;10.27;85.73
24752;BME280;27246;52.376;4.628;2023-04-07T11:08:52;101706.38;;;10.27;85.19
24752;BME280;27246;52.376;4.628;2023-04-07T11:13:54;101710.19;;;10.26;85.91
24752;BME280;27246;52.376;4.628;2023-04-07T11:18:56;101710.81;;;10.19;85.87
24752;BME280;27246;52.376;4.628;2023-04-07T11:23:57;101720.44;;;10.15;85.85
24752;BME280;27246;52.376;4.628;2023-04-07T11:28:59;101726.19;;;10.30;84.38
24752;BME280;27246;52.376;4.628;2023-04-07T11:34:03;101720.69;;;10.04;87.31
24752;BME280;27246;52.376;4.628;2023-04-07T11:39:17;101727.59;;;9.90;86.69
24752;BME280;27246;52.376;4.628;2023-04-07T11:44:20;101734.53;;;9.94;88.62
24752;BME280;27246;52.376;4.628;2023-04-07T11:49:23;101730.44;;;9.98;89.69
24752;BME280;27246;52.376;4.628;2023-04-07T11:54:26;101735.94;;;9.98;90.49
24752;BME280;27246;52.376;4.628;2023-04-07T11:59:27;101737.91;;;9.88;90.92
24752;BME280;27246;52.376;4.628;2023-04-07T12:04:29;101741.94;;;9.94;91.52
24752;BME280;27246;52.376;4.628;2023-04-07T12:09:33;101751.03;;;9.94;90.84
24752;BME280;27246;52.376;4.628;2023-04-07T12:14:36;101749.22;;;10.21;90.53
24752;BME280;27246;52.376;4.628;2023-04-07T12:19:38;101754.41;;;10.06;91.08
24752;BME280;27246;52.376;4.628;2023-04-07T12:24:40;101750.72;;;9.97;90.50
24752;BME280;27246;52.376;4.628;2023-04-07T12:29:42;101760.88;;;9.97;90.79
24752;BME280;27246;52.376;4.628;2023-04-07T12:34:44;101773.31;;;10.01;90.11
24752;BME280;27246;52.376;4.628;2023-04-07T12:39:46;101768.78;;;10.18;89.35
24752;BME280;27246;52.376;4.628;2023-04-07T12:44:47;101773.53;;;10.08;88.98
24752;BME280;27246;52.376;4.628;2023-04-07T12:49:49;101770.44;;;10.11;89.28
24752;BME280;27246;52.376;4.628;2023-04-07T12:54:51;101783.69;;;10.07;87.90
24752;BME280;27246;52.376;4.628;2023-04-07T12:59:53;101778.69;;;10.29;86.90
24752;BME280;27246;52.376;4.628;2023-04-07T13:04:55;101783.31;;;10.46;84.98
24752;BME280;27246;52.376;4.628;2023-04-07T13:09:57;101789.38;;;10.32;84.72
24752;BME280;27246;52.376;4.628;2023-04-07T13:14:59;101789.53;;;10.30;84.88
24752;BME280;27246;52.376;4.628;2023-04-07T13:20:02;101794.19;;;10.30;85.26
24752;BME280;27246;52.376;4.628;2023-04-07T13:25:05;101804.81;;;10.25;85.64
24752;BME280;27246;52.376;4.628;2023-04-07T13:30:07;101800.34;;;10.24;86.10
24752;BME280;27246;52.376;4.628;2023-04-07T13:35:08;101801.28;;;10.14;85.60
24752;BME280;27246;52.376;4.628;2023-04-07T13:40:10;101803.19;;;9.96;86.43
24752;BME280;27246;52.376;4.628;2023-04-07T13:45:13;101809.63;;;10.05;86.55
24752;BME280;27246;52.376;4.628;2023-04-07T13:50:14;101807.75;;;10.05;87.77
24752;BME280;27246;52.376;4.628;2023-04-07T13:55:16;101806.00;;;10.04;87.62
24752;BME280;27246;52.376;4.628;2023-04-07T14:00:20;101811.78;;;9.93;88.35
24752;BME280;27246;52.376;4.628;2023-04-07T14:05:23;101808.53;;;9.97;88.41
24752;BME280;27246;52.376;4.628;2023-04-07T14:10:24;101810.66;;;9.86;88.83
24752;BME280;27246;52.376;4.628;2023-04-07T14:15:26;101806.25;;;9.93;89.32
24752;BME280;27246;52.376;4.628;2023-04-07T14:20:28;101814.19;;;9.96;87.68
24752;BME280;27246;52.376;4.628;2023-04-07T14:25:30;101807.69;;;9.97;87.86
24752;BME280;27246;52.376;4.628;2023-04-07T14:30:35;101824.00;;;9.98;86.39
24752;BME280;27246;52.376;4.628;2023-04-07T14:35:38;101815.59;;;10.18;86.59
24752;BME280;27246;52.376;4.628;2023-04-07T14:40:40;101819.28;;;10.27;86.49
24752;BME280;27246;52.376;4.628;2023-04-07T14:45:42;101827.41;;;10.10;85.94
24752;BME280;27246;52.376;4.628;2023-04-07T14:50:44;101826.91;;;10.15;86.06
24752;BME280;27246;52.376;4.628;2023-04-07T14:55:47;101821.81;;;10.20;86.85
24752;BME280;27246;52.376;4.628;2023-04-07T15:00:48;101833.75;;;10.29;86.28
24752;BME280;27246;52.376;4.628;2023-04-07T15:05:50;101833.22;;;10.25;86.29
24752;BME280;27246;52.376;4.628;2023-04-07T15:10:52;101829.09;;;10.47;86.10
24752;BME280;27246;52.376;4.628;2023-04-07T15:15:53;101829.72;;;10.41;86.22
24752;BME280;27246;52.376;4.628;2023-04-07T15:20:55;101830.22;;;10.18;86.85
24752;BME280;27246;52.376;4.628;2023-04-07T15:25:57;101836.50;;;10.29;87.14
24752;BME280;27246;52.376;4.628;2023-04-07T15:30:59;101837.06;;;10.14;87.32
24752;BME280;27246;52.376;4.628;2023-04-07T15:36:02;101839.13;;;10.12;88.48
24752;BME280;27246;52.376;4.628;2023-04-07T15:41:05;101846.53;;;10.12;87.77
24752;BME280;27246;52.376;4.628;2023-04-07T15:46:06;101847.44;;;10.02;88.85
24752;BME280;27246;52.376;4.628;2023-04-07T15:51:08;101849.25;;;9.94;89.67
24752;BME280;27246;52.376;4.628;2023-04-07T15:56:10;101849.81;;;9.97;89.68
24752;BME280;27246;52.376;4.628;2023-04-07T16:01:14;101858.38;;;9.94;89.48
24752;BME280;27246;52.376;4.628;2023-04-07T16:06:15;101857.66;;;9.92;89.67
24752;BME280;27246;52.376;4.628;2023-04-07T16:11:17;101863.22;;;9.82;90.31
24752;BME280;27246;52.376;4.628;2023-04-07T16:16:19;101859.69;;;9.72;90.84
24752;BME280;27246;52.376;4.628;2023-04-07T16:21:21;101861.44;;;9.73;90.50
24752;BME280;27246;52.376;4.628;2023-04-07T16:26:22;101859.38;;;9.75;91.20
24752;BME280;27246;52.376;4.628;2023-04-07T16:31:24;101863.56;;;9.79;92.00
24752;BME280;27246;52.376;4.628;2023-04-07T16:36:26;101868.97;;;9.71;91.88
24752;BME280;27246;52.376;4.628;2023-04-07T16:41:29;101875.03;;;9.75;91.78
24752;BME280;27246;52.376;4.628;2023-04-07T16:46:30;101878.94;;;9.72;91.91
24752;BME280;27246;52.376;4.628;2023-04-07T16:51:32;101875.47;;;9.70;92.11
24752;BME280;27246;52.376;4.628;2023-04-07T16:56:34;101880.44;;;9.67;92.46
24752;BME280;27246;52.376;4.628;2023-04-07T17:01:36;101898.09;;;9.64;92.89
24752;BME280;27246;52.376;4.628;2023-04-07T17:06:42;101909.38;;;9.71;92.94
24752;BME280;27246;52.376;4.628;2023-04-07T17:11:44;101900.84;;;9.64;92.98
24752;BME280;27246;52.376;4.628;2023-04-07T17:16:46;101915.31;;;9.66;93.11
24752;BME280;27246;52.376;4.628;2023-04-07T17:21:48;101915.75;;;9.71;92.64
24752;BME280;27246;52.376;4.628;2023-04-07T17:26:49;101915.66;;;9.63;92.79
24752;BME280;27246;52.376;4.628;2023-04-07T17:31:51;101928.38;;;9.64;93.57
24752;BME280;27246;52.376;4.628;2023-04-07T17:36:53;101926.66;;;9.63;93.29
24752;BME280;27246;52.376;4.628;2023-04-07T17:41:54;101937.56;;;9.55;93.79
24752;BME280;27246;52.376;4.628;2023-04-07T17:46:56;101949.16;;;9.49;94.16
24752;BME280;27246;52.376;4.628;2023-04-07T17:51:59;101948.84;;;9.52;94.42
24752;BME280;27246;52.376;4.628;2023-04-07T17:57:00;101954.91;;;9.55;94.21
24752;BME280;27246;52.376;4.628;2023-04-07T18:02:03;101951.75;;;9.50;94.10
24752;BME280;27246;52.376;4.628;2023-04-07T18:07:09;101956.69;;;9.47;94.53
24752;BME280;27246;52.376;4.628;2023-04-07T18:12:13;101959.72;;;9.44;94.60
24752;BME280;27246;52.376;4.628;2023-04-07T18:17:15;101966.66;;;9.48;94.54
24752;BME280;27246;52.376;4.628;2023-04-07T18:22:17;101968.84;;;9.44;94.59
24752;BME280;27246;52.376;4.628;2023-04-07T18:27:19;101969.00;;;9.43;94.74
24752;BME280;27246;52.376;4.628;2023-04-07T18:32:24;101990.88;;;9.34;94.90
24752;BME280;27246;52.376;4.628;2023-04-07T18:37:26;101987.09;;;9.35;95.51
24752;BME280;27246;52.376;4.628;2023-04-07T18:42:30;102003.59;;;9.35;95.58
24752;BME280;27246;52.376;4.628;2023-04-07T18:47:31;102011.13;;;9.33;96.12
24752;BME280;27246;52.376;4.628;2023-04-07T18:52:33;102023.16;;;9.32;96.71
24752;BME280;27246;52.376;4.628;2023-04-07T18:57:36;102024.75;;;9.35;96.27
24752;BME280;27246;52.376;4.628;2023-04-07T19:02:37;102044.25;;;9.41;96.33
24752;BME280;27246;52.376;4.628;2023-04-07T19:07:45;102043.25;;;9.43;96.25
24752;BME280;27246;52.376;4.628;2023-04-07T19:12:46;102044.13;;;9.43;96.00
24752;BME280;27246;52.376;4.628;2023-04-07T19:17:48;102051.78;;;9.39;96.18
24752;BME280;27246;52.376;4.628;2023-04-07T19:22:50;102057.28;;;9.39;96.26
24752;BME280;27246;52.376;4.628;2023-04-07T19:27:51;102056.88;;;9.34;96.68
24752;BME280;27246;52.376;4.628;2023-04-07T19:32:53;102060.34;;;9.36;95.94
24752;BME280;27246;52.376;4.628;2023-04-07T19:37:55;102057.59;;;9.36;96.67
24752;BME280;27246;52.376;4.628;2023-04-07T19:42:57;102066.13;;;9.33;96.78
24752;BME280;27246;52.376;4.628;2023-04-07T19:47:59;102069.59;;;9.35;96.42
24752;BME280;27246;52.376;4.628;2023-04-07T19:53:00;102066.72;;;9.37;96.08
24752;BME280;27246;52.376;4.628;2023-04-07T19:58:02;102067.53;;;9.28;96.13
24752;BME280;27246;52.376;4.628;2023-04-07T20:03:04;102073.22;;;9.26;96.88
24752;BME280;27246;52.376;4.628;2023-04-07T20:08:06;102066.44;;;9.30;96.91
24752;BME280;27246;52.376;4.628;2023-04-07T20:13:08;102077.69;;;9.27;96.80
24752;BME280;27246;52.376;4.628;2023-04-07T20:18:10;102080.03;;;9.22;97.60
24752;BME280;27246;52.376;4.628;2023-04-07T20:23:12;102089.13;;;9.23;97.21
24752;BME280;27246;52.376;4.628;2023-04-07T20:28:16;102092.31;;;9.18;97.08
24752;BME280;27246;52.376;4.628;2023-04-07T20:33:17;102092.75;;;9.23;97.65
24752;BME280;27246;52.376;4.628;2023-04-07T20:38:20;102092.88;;;9.21;97.15
24752;BME280;27246;52.376;4.628;2023-04-07T20:43:21;102094.78;;;9.21;97.41
24752;BME280;27246;52.376;4.628;2023-04-07T20:48:24;102095.94;;;9.28;97.36
24752;BME280;27246;52.376;4.628;2023-04-07T20:53:26;102098.25;;;9.23;97.49
24752;BME280;27246;52.376;4.628;2023-04-07T20:58:27;102097.53;;;9.21;97.43
24752;BME280;27246;52.376;4.628;2023-04-07T21:03:29;102106.22;;;9.16;98.11
24752;BME280;27246;52.376;4.628;2023-04-07T21:08:31;102103.47;;;9.16;98.32
24752;BME280;27246;52.376;4.628;2023-04-07T21:13:33;102105.63;;;9.13;97.77
24752;BME280;27246;52.376;4.628;2023-04-07T21:18:35;102108.97;;;9.16;97.28
24752;BME280;27246;52.376;4.628;2023-04-07T21:23:36;102109.81;;;9.17;97.36
24752;BME280;27246;52.376;4.628;2023-04-07T21:28:38;102118.06;;;9.17;97.49
24752;BME280;27246;52.376;4.628;2023-04-07T21:33:40;102124.44;;;9.17;97.20
24752;BME280;27246;52.376;4.628;2023-04-07T21:38:42;102128.19;;;9.16;97.50
24752;BME280;27246;52.376;4.628;2023-04-07T21:43:44;102121.97;;;9.14;97.60
24752;BME280;27246;52.376;4.628;2023-04-07T21:48:46;102131.22;;;9.13;97.13
24752;BME280;27246;52.376;4.628;2023-04-07T21:53:49;102130.22;;;9.14;97.70
24752;BME280;27246;52.376;4.628;2023-04-07T21:58:51;102127.63;;;9.13;97.19
24752;BME280;27246;52.376;4.628;2023-04-07T22:03:53;102131.09;;;9.15;97.55
24752;BME280;27246;52.376;4.628;2023-04-07T22:08:56;102130.06;;;9.16;97.66
24752;BME280;27246;52.376;4.628;2023-04-07T22:14:02;102132.41;;;9.20;97.73
24752;BME280;27246;52.376;4.628;2023-04-07T22:19:04;102145.56;;;9.17;96.95
24752;BME280;27246;52.376;4.628;2023-04-07T22:24:06;102153.81;;;9.17;97.60
24752;BME280;27246;52.376;4.628;2023-04-07T22:29:07;102149.16;;;9.17;98.22
24752;BME280;27246;52.376;4.628;2023-04-07T22:34:09;102159.03;;;9.20;97.75
24752;BME280;27246;52.376;4.628;2023-04-07T22:39:11;102163.50;;;9.21;98.09
24752;BME280;27246;52.376;4.628;2023-04-07T22:44:13;102161.47;;;9.23;97.94
24752;BME280;27246;52.376;4.628;2023-04-07T22:49:15;102178.09;;;9.21;97.53
24752;BME280;27246;52.376;4.628;2023-04-07T22:54:17;102175.22;;;9.23;97.36
24752;BME280;27246;52.376;4.628;2023-04-07T22:59:18;102171.28;;;9.16;97.40
24752;BME280;27246;52.376;4.628;2023-04-07T23:04:20;102179.41;;;9.17;97.07
24752;BME280;27246;52.376;4.628;2023-04-07T23:09:21;102174.34;;;9.13;97.06
24752;BME280;27246;52.376;4.628;2023-04-07T23:14:23;102175.91;;;9.06;96.91
24752;BME280;27246;52.376;4.628;2023-04-07T23:19:25;102174.19;;;9.05;97.40
24752;BME280;27246;52.376;4.628;2023-04-07T23:24:27;102172.31;;;9.05;97.50
24752;BME280;27246;52.376;4.628;2023-04-07T23:29:28;102186.63;;;8.99;98.11
24752;BME280;27246;52.376;4.628;2023-04-07T23:34:30;102184.44;;;8.93;98.24
24752;BME280;27246;52.376;4.628;2023-04-07T23:39:32;102193.84;;;8.90;98.61
24752;BME280;27246;52.376;4.628;2023-04-07T23:44:34;102202.31;;;8.77;99.43
24752;BME280;27246;52.376;4.628;2023-04-07T23:49:36;102195.13;;;8.86;99.91
24752;BME280;27246;52.376;4.628;2023-04-07T23:54:38;102196.00;;;8.87;99.12
24752;BME280;27246;52.376;4.628;2023-04-07T23:59:39;102190.75;;;8.74;99.32
